sensor_id;sensor_type;location;lat;lon;timestamp;pressure;altitude;pressure_sealevel;temperature;humidity
7824;BME280;3957;48.61947800;9.05303100;2022-12-07T00:00:18;96057.00;;;0.91;100.00
7824;BME280;3957;48.61947800;9.05303100;2022-12-07T00:01:41;96057.25;;;0.88;100.00
7824;BME280;3957;48.61947800;9.05303100;2022-12-07T00:03:02;96060.03;;;0.87;100.00
7824;BME280;3957;48.61947800;9.05303100;2022-12-07T00:04:23;96055.59;;;0.97;100.00
7824;BME280;3957;48.61947800;9.05303100;2022-12-07T00:05:43;96056.59;;;0.86;100.00
7824;BME280;3957;48.61947800;9.05303100;2022-12-07T00:07:04;96057.25;;;0.88;100.00
7824;BME280;3957;48.61947800;9.05303100;2022-12-07T00:08:25;96060.34;;;0.83;100.00
7824;BME280;3957;48.61947800;9.05303100;2022-12-07T00:09:46;96058.00;;;0.80;100.00
7824;BME280;3957;48.61947800;9.05303100;2022-12-07T00:11:09;96055.50;;;0.79;100.00
7824;BME280;3957;48.61947800;9.05303100;2022-12-07T00:12:30;96060.63;;;0.80;100.00
7824;BME280;3957;48.61947800;9.05303100;2022-12-07T00:13:55;96057.00;;;0.81;100.00
7824;BME280;3957;48.61947800;9.05303100;2022-12-07T00:15:16;96056.19;;;0.81;100.00
7824;BME280;3957;48.61947800;9.05303100;2022-12-07T00:16:37;96065.91;;;0.80;100.00
7824;BME280;3957;48.61947800;9.05303100;2022-12-07T00:17:58;96058.00;;;0.80;100.00
7824;BME280;3957;48.61947800;9.05303100;2022-12-07T00:19:19;96058.97;;;0.79;100.00
7824;BME280;3957;48.61947800;9.05303100;2022-12-07T00:20:40;96057.84;;;0.82;100.00
7824;BME280;3957;48.61947800;9.05303100;2022-12-07T00:22:00;96056.19;;;0.81;100.00
7824;BME280;3957;48.61947800;9.05303100;2022-12-07T00:23:21;96055.06;;;0.83;100.00
7824;BME280;3957;48.61947800;9.05303100;2022-12-07T00:24:42;96055.50;;;0.79;100.00
7824;BME280;3957;48.61947800;9.05303100;2022-12-07T00:26:07;96056.19;;;0.81;100.00
7824;BME280;3957;48.61947800;9.05303100;2022-12-07T00:27:28;96055.38;;;0.80;100.00
7824;BME280;3957;48.61947800;9.05303100;2022-12-07T00:28:51;96057.56;;;0.85;100.00
7824;BME280;3957;48.61947800;9.05303100;2022-12-07T00:30:12;96054.53;;;0.80;100.00
7824;BME280;3957;48.61947800;9.05303100;2022-12-07T00:31:36;96052.72;;;0.80;100.00
7824;BME280;3957;48.61947800;9.05303100;2022-12-07T00:32:59;96052.88;;;0.79;100.00
7824;BME280;3957;48.61947800;9.05303100;2022-12-07T00:34:20;96052.03;;;0.78;100.00
7824;BME280;3957;48.61947800;9.05303100;2022-12-07T00:35:41;96051.22;;;0.78;100.00
7824;BME280;3957;48.61947800;9.05303100;2022-12-07T00:37:02;96048.72;;;0.76;100.00
7824;BME280;3957;48.61947800;9.05303100;2022-12-07T00:38:23;96048.44;;;0.79;100.00
7824;BME280;3957;48.61947800;9.05303100;2022-12-07T00:39:45;96051.22;;;0.78;100.00
7824;BME280;3957;48.61947800;9.05303100;2022-12-07T00:41:19;96050.91;;;0.81;100.00
7824;BME280;3957;48.61947800;9.05303100;2022-12-07T00:42:41;96050.09;;;0.80;100.00
7824;BME280;3957;48.61947800;9.05303100;2022-12-07T00:44:02;96054.38;;;0.81;100.00
7824;BME280;3957;48.61947800;9.05303100;2022-12-07T00:45:23;96048.28;;;0.81;100.00
7824;BME280;3957;48.61947800;9.05303100;2022-12-07T00:46:43;96047.47;;;0.80;100.00
7824;BME280;3957;48.61947800;9.05303100;2022-12-07T00:48:05;96052.03;;;0.78;100.00
7824;BME280;3957;48.61947800;9.05303100;2022-12-07T00:49:26;96047.88;;;0.76;100.00
7824;BME280;3957;48.61947800;9.05303100;2022-12-07T00:50:47;96051.50;;;0.75;100.00
7824;BME280;3957;48.61947800;9.05303100;2022-12-07T00:52:08;96041.94;;;0.74;100.00
7824;BME280;3957;48.61947800;9.05303100;2022-12-07T00:53:29;96042.75;;;0.74;100.00
7824;BME280;3957;48.61947800;9.05303100;2022-12-07T00:54:50;96041.22;;;0.72;100.00
7824;BME280;3957;48.61947800;9.05303100;2022-12-07T00:56:18;96043.06;;;0.71;100.00
7824;BME280;3957;48.61947800;9.05303100;2022-12-07T00:57:39;96051.50;;;0.75;100.00
7824;BME280;3957;48.61947800;9.05303100;2022-12-07T00:59:02;96048.88;;;0.75;100.00
7824;BME280;3957;48.61947800;9.05303100;2022-12-07T01:00:23;96044.41;;;0.75;100.00
7824;BME280;3957;48.61947800;9.05303100;2022-12-07T01:01:44;96049.84;;;0.74;100.00
7824;BME280;3957;48.61947800;9.05303100;2022-12-07T01:03:06;96050.50;;;0.76;100.00
7824;BME280;3957;48.61947800;9.05303100;2022-12-07T01:04:27;96050.66;;;0.74;100.00
7824;BME280;3957;48.61947800;9.05303100;2022-12-07T01:05:50;96045.09;;;0.77;100.00
7824;BME280;3957;48.61947800;9.05303100;2022-12-07T01:07:11;96054.00;;;0.76;100.00
7824;BME280;3957;48.61947800;9.05303100;2022-12-07T01:08:32;96044.13;;;0.78;100.00
7824;BME280;3957;48.61947800;9.05303100;2022-12-07T01:09:52;96049.09;;;0.81;100.00
7824;BME280;3957;48.61947800;9.05303100;2022-12-07T01:11:16;96051.88;;;0.80;100.00
7824;BME280;3957;48.61947800;9.05303100;2022-12-07T01:12:37;96049.53;;;0.77;100.00
7824;BME280;3957;48.61947800;9.05303100;2022-12-07T01:13:59;96053.00;;;0.77;100.00
7824;BME280;3957;48.61947800;9.05303100;2022-12-07T01:15:20;96042.19;;;0.80;100.00
7824;BME280;3957;48.61947800;9.05303100;2022-12-07T01:16:41;96048.72;;;0.76;100.00
7824;BME280;3957;48.61947800;9.05303100;2022-12-07T01:18:02;96045.53;;;0.73;100.00
7824;BME280;3957;48.61947800;9.05303100;2022-12-07T01:19:22;96047.72;;;0.77;100.00
7824;BME280;3957;48.61947800;9.05303100;2022-12-07T01:20:43;96042.75;;;0.74;100.00
7824;BME280;3957;48.61947800;9.05303100;2022-12-07T01:22:04;96049.53;;;0.77;100.00
7824;BME280;3957;48.61947800;9.05303100;2022-12-07T01:23:25;96046.63;;;0.80;100.00
7824;BME280;3957;48.61947800;9.05303100;2022-12-07T01:24:45;96050.09;;;0.80;100.00
7824;BME280;3957;48.61947800;9.05303100;2022-12-07T01:26:11;96057.31;;;0.78;100.00
7824;BME280;3957;48.61947800;9.05303100;2022-12-07T01:27:32;96059.41;;;0.75;100.00
7824;BME280;3957;48.61947800;9.05303100;2022-12-07T01:28:54;96061.91;;;0.76;100.00
7824;BME280;3957;48.61947800;9.05303100;2022-12-07T01:30:15;96053.00;;;0.77;100.00
7824;BME280;3957;48.61947800;9.05303100;2022-12-07T01:31:36;96054.66;;;0.78;100.00
7824;BME280;3957;48.61947800;9.05303100;2022-12-07T01:32:57;96061.91;;;0.76;100.00
7824;BME280;3957;48.61947800;9.05303100;2022-12-07T01:34:17;96060.78;;;0.79;100.00
7824;BME280;3957;48.61947800;9.05303100;2022-12-07T01:35:38;96058.81;;;0.81;100.00
7824;BME280;3957;48.61947800;9.05303100;2022-12-07T01:36:59;96060.78;;;0.79;100.00
7824;BME280;3957;48.61947800;9.05303100;2022-12-07T01:38:19;96060.50;;;0.82;100.00
7824;BME280;3957;48.61947800;9.05303100;2022-12-07T01:39:40;96065.91;;;0.80;100.00
7824;BME280;3957;48.61947800;9.05303100;2022-12-07T01:41:02;96064.38;;;0.78;100.00
7824;BME280;3957;48.61947800;9.05303100;2022-12-07T01:42:23;96067.84;;;0.78;100.00
7824;BME280;3957;48.61947800;9.05303100;2022-12-07T01:45:56;96070.63;;;0.77;100.00
7824;BME280;3957;48.61947800;9.05303100;2022-12-07T01:47:17;96071.44;;;0.77;100.00
7824;BME280;3957;48.61947800;9.05303100;2022-12-07T01:48:39;96073.25;;;0.77;100.00
7824;BME280;3957;48.61947800;9.05303100;2022-12-07T01:50:02;96060.09;;;0.77;100.00
7824;BME280;3957;48.61947800;9.05303100;2022-12-07T01:51:22;96067.16;;;0.76;100.00
7824;BME280;3957;48.61947800;9.05303100;2022-12-07T01:52:45;96053.84;;;0.78;100.00
7824;BME280;3957;48.61947800;9.05303100;2022-12-07T01:54:11;96063.41;;;0.79;100.00
7824;BME280;3957;48.61947800;9.05303100;2022-12-07T01:55:34;96062.00;;;0.84;100.00
7824;BME280;3957;48.61947800;9.05303100;2022-12-07T01:56:58;96060.78;;;0.79;100.00
7824;BME280;3957;48.61947800;9.05303100;2022-12-07T01:58:19;96065.19;;;0.78;100.00
7824;BME280;3957;48.61947800;9.05303100;2022-12-07T01:59:42;96064.38;;;0.78;100.00
7824;BME280;3957;48.61947800;9.05303100;2022-12-07T02:01:03;96063.41;;;0.79;100.00
7824;BME280;3957;48.61947800;9.05303100;2022-12-07T02:02:28;96061.34;;;0.73;100.00
7824;BME280;3957;48.61947800;9.05303100;2022-12-07T02:03:52;96059.78;;;0.80;100.00
7824;BME280;3957;48.61947800;9.05303100;2022-12-07T02:05:14;96067.16;;;0.76;100.00
7824;BME280;3957;48.61947800;9.05303100;2022-12-07T02:06:35;96064.53;;;0.76;100.00
7824;BME280;3957;48.61947800;9.05303100;2022-12-07T02:07:57;96060.53;;;0.72;100.00
7824;BME280;3957;48.61947800;9.05303100;2022-12-07T02:09:19;96063.16;;;0.72;100.00
7824;BME280;3957;48.61947800;9.05303100;2022-12-07T02:10:40;96064.13;;;0.71;100.00
7824;BME280;3957;48.61947800;9.05303100;2022-12-07T02:12:01;96065.50;;;0.75;100.00
7824;BME280;3957;48.61947800;9.05303100;2022-12-07T02:13:27;96066.72;;;0.81;100.00
7824;BME280;3957;48.61947800;9.05303100;2022-12-07T02:14:50;96071.84;;;0.82;100.00
7824;BME280;3957;48.61947800;9.05303100;2022-12-07T02:17:57;96067.31;;;0.75;100.00
7824;BME280;3957;48.61947800;9.05303100;2022-12-07T02:23:38;96068.75;;;0.40;100.00
7824;BME280;3957;48.61947800;9.05303100;2022-12-07T02:27:13;96070.72;;;0.08;100.00
7824;BME280;3957;48.61947800;9.05303100;2022-12-07T02:29:25;96067.25;;;0.08;100.00
7824;BME280;3957;48.61947800;9.05303100;2022-12-07T02:30:48;96066.84;;;-0.07;100.00
7824;BME280;3957;48.61947800;9.05303100;2022-12-07T02:32:40;96065.59;;;-0.03;100.00
7824;BME280;3957;48.61947800;9.05303100;2022-12-07T02:34:10;96064.06;;;0.04;100.00
7824;BME280;3957;48.61947800;9.05303100;2022-12-07T02:35:38;96063.41;;;-0.08;100.00
7824;BME280;3957;48.61947800;9.05303100;2022-12-07T02:37:10;96057.84;;;-0.14;100.00
7824;BME280;3957;48.61947800;9.05303100;2022-12-07T02:38:50;96064.06;;;-0.15;100.00
7824;BME280;3957;48.61947800;9.05303100;2022-12-07T02:41:56;96065.16;;;-0.28;100.00
7824;BME280;3957;48.61947800;9.05303100;2022-12-07T02:43:33;96061.56;;;-0.37;100.00
7824;BME280;3957;48.61947800;9.05303100;2022-12-07T02:44:56;96067.50;;;-0.44;100.00
7824;BME280;3957;48.61947800;9.05303100;2022-12-07T02:46:22;96057.25;;;-0.47;100.00
7824;BME280;3957;48.61947800;9.05303100;2022-12-07T02:47:44;96065.28;;;-0.49;100.00
7824;BME280;3957;48.61947800;9.05303100;2022-12-07T02:49:07;96059.47;;;-0.53;100.00
7824;BME280;3957;48.61947800;9.05303100;2022-12-07T02:50:29;96064.72;;;-0.53;100.00
7824;BME280;3957;48.61947800;9.05303100;2022-12-07T02:51:50;96067.34;;;-0.53;100.00
7824;BME280;3957;48.61947800;9.05303100;2022-12-07T02:54:49;96062.22;;;-0.54;100.00
7824;BME280;3957;48.61947800;9.05303100;2022-12-07T02:56:39;96065.69;;;-0.54;100.00
7824;BME280;3957;48.61947800;9.05303100;2022-12-07T02:58:35;96059.59;;;-0.54;100.00
7824;BME280;3957;48.61947800;9.05303100;2022-12-07T03:00:08;96055.31;;;-0.55;100.00
7824;BME280;3957;48.61947800;9.05303100;2022-12-07T03:01:41;96051.03;;;-0.56;100.00
7824;BME280;3957;48.61947800;9.05303100;2022-12-07T03:03:10;96048.25;;;-0.55;100.00
7824;BME280;3957;48.61947800;9.05303100;2022-12-07T03:06:28;96049.66;;;-0.50;100.00
7824;BME280;3957;48.61947800;9.05303100;2022-12-07T03:09:27;96048.69;;;-0.49;100.00
7824;BME280;3957;48.61947800;9.05303100;2022-12-07T03:11:08;96047.03;;;-0.50;100.00
7824;BME280;3957;48.61947800;9.05303100;2022-12-07T03:14:26;96048.84;;;-0.51;100.00
7824;BME280;3957;48.61947800;9.05303100;2022-12-07T03:15:55;96044.41;;;-0.50;100.00
7824;BME280;3957;48.61947800;9.05303100;2022-12-07T03:17:24;96037.75;;;-0.55;100.00
7824;BME280;3957;48.61947800;9.05303100;2022-12-07T03:18:52;96044.91;;;-0.57;100.00
7824;BME280;3957;48.61947800;9.05303100;2022-12-07T03:20:19;96039.81;;;-0.58;100.00
7824;BME280;3957;48.61947800;9.05303100;2022-12-07T03:21:43;96037.47;;;-0.61;100.00
7824;BME280;3957;48.61947800;9.05303100;2022-12-07T03:23:07;96039.94;;;-0.60;100.00
7824;BME280;3957;48.61947800;9.05303100;2022-12-07T03:24:35;96043.53;;;-0.61;100.00
7824;BME280;3957;48.61947800;9.05303100;2022-12-07T03:25:58;96040.91;;;-0.61;100.00
7824;BME280;3957;48.61947800;9.05303100;2022-12-07T03:27:26;96047.84;;;-0.60;100.00
7824;BME280;3957;48.61947800;9.05303100;2022-12-07T03:28:52;96043.53;;;-0.61;100.00
7824;BME280;3957;48.61947800;9.05303100;2022-12-07T03:30:22;96043.53;;;-0.61;100.00
7824;BME280;3957;48.61947800;9.05303100;2022-12-07T03:31:48;96038.16;;;-0.59;100.00
7824;BME280;3957;48.61947800;9.05303100;2022-12-07T03:33:45;96045.50;;;-0.53;100.00
7824;BME280;3957;48.61947800;9.05303100;2022-12-07T03:35:16;96045.34;;;-0.52;100.00
7824;BME280;3957;48.61947800;9.05303100;2022-12-07T03:36:47;96038.19;;;-0.49;100.00
7824;BME280;3957;48.61947800;9.05303100;2022-12-07T03:38:20;96032.78;;;-0.48;100.00
7824;BME280;3957;48.61947800;9.05303100;2022-12-07T03:40:00;96039.44;;;-0.44;100.00
7824;BME280;3957;48.61947800;9.05303100;2022-12-07T03:41:24;96038.47;;;-0.43;100.00
7824;BME280;3957;48.61947800;9.05303100;2022-12-07T03:42:46;96035.56;;;-0.40;100.00
7824;BME280;3957;48.61947800;9.05303100;2022-12-07T03:44:07;96033.59;;;-0.38;100.00
7824;BME280;3957;48.61947800;9.05303100;2022-12-07T03:45:55;96038.72;;;-0.36;100.00
7824;BME280;3957;48.61947800;9.05303100;2022-12-07T03:48:30;96036.00;;;-0.35;100.00
7824;BME280;3957;48.61947800;9.05303100;2022-12-07T03:52:36;96033.22;;;-0.33;100.00
7824;BME280;3957;48.61947800;9.05303100;2022-12-07T03:54:16;96039.88;;;-0.29;100.00
7824;BME280;3957;48.61947800;9.05303100;2022-12-07T03:55:42;96031.69;;;-0.36;100.00
7824;BME280;3957;48.61947800;9.05303100;2022-12-07T03:57:04;96030.31;;;-0.40;100.00
7824;BME280;3957;48.61947800;9.05303100;2022-12-07T03:58:26;96031.97;;;-0.39;100.00
7824;BME280;3957;48.61947800;9.05303100;2022-12-07T03:59:48;96038.34;;;-0.41;100.00
7824;BME280;3957;48.61947800;9.05303100;2022-12-07T04:01:10;96035.00;;;-0.43;100.00
7824;BME280;3957;48.61947800;9.05303100;2022-12-07T04:02:32;96032.50;;;-0.45;100.00
7824;BME280;3957;48.61947800;9.05303100;2022-12-07T04:03:53;96038.72;;;-0.46;100.00
7824;BME280;3957;48.61947800;9.05303100;2022-12-07T04:05:14;96037.47;;;-0.42;100.00
7824;BME280;3957;48.61947800;9.05303100;2022-12-07T04:06:34;96030.31;;;-0.40;100.00
7824;BME280;3957;48.61947800;9.05303100;2022-12-07T04:07:55;96030.16;;;-0.38;100.00
7824;BME280;3957;48.61947800;9.05303100;2022-12-07T04:09:16;96033.59;;;-0.38;100.00
7824;BME280;3957;48.61947800;9.05303100;2022-12-07T04:10:37;96029.75;;;-0.33;100.00
7824;BME280;3957;48.61947800;9.05303100;2022-12-07T04:11:58;96030.72;;;-0.35;100.00
7824;BME280;3957;48.61947800;9.05303100;2022-12-07T04:13:19;96027.25;;;-0.35;100.00
7824;BME280;3957;48.61947800;9.05303100;2022-12-07T04:14:39;96031.41;;;-0.32;100.00
7824;BME280;3957;48.61947800;9.05303100;2022-12-07T04:16:00;96033.91;;;-0.31;100.00
7824;BME280;3957;48.61947800;9.05303100;2022-12-07T04:17:21;96038.06;;;-0.28;100.00
7824;BME280;3957;48.61947800;9.05303100;2022-12-07T04:18:41;96029.88;;;-0.35;100.00
7824;BME280;3957;48.61947800;9.05303100;2022-12-07T04:20:03;96029.34;;;-0.39;100.00
7824;BME280;3957;48.61947800;9.05303100;2022-12-07T04:21:24;96023.38;;;-0.41;100.00
7824;BME280;3957;48.61947800;9.05303100;2022-12-07T04:22:46;96030.97;;;-0.47;100.00
7824;BME280;3957;48.61947800;9.05303100;2022-12-07T04:24:07;96028.63;;;-0.50;100.00
7824;BME280;3957;48.61947800;9.05303100;2022-12-07T04:25:27;96027.91;;;-0.53;100.00
7824;BME280;3957;48.61947800;9.05303100;2022-12-07T04:26:49;96026.13;;;-0.52;100.00
7824;BME280;3957;48.61947800;9.05303100;2022-12-07T04:28:09;96025.19;;;-0.51;100.00
7824;BME280;3957;48.61947800;9.05303100;2022-12-07T04:29:30;96029.72;;;-0.53;100.00
7824;BME280;3957;48.61947800;9.05303100;2022-12-07T04:30:51;96024.19;;;-0.50;100.00
7824;BME280;3957;48.61947800;9.05303100;2022-12-07T04:32:11;96028.63;;;-0.50;100.00
7824;BME280;3957;48.61947800;9.05303100;2022-12-07T04:33:32;96031.13;;;-0.49;100.00
7824;BME280;3957;48.61947800;9.05303100;2022-12-07T04:34:53;96030.97;;;-0.47;100.00
7824;BME280;3957;48.61947800;9.05303100;2022-12-07T04:36:14;96024.91;;;-0.48;100.00
7824;BME280;3957;48.61947800;9.05303100;2022-12-07T04:37:35;96029.31;;;-0.48;100.00
7824;BME280;3957;48.61947800;9.05303100;2022-12-07T04:38:55;96030.97;;;-0.47;100.00
7824;BME280;3957;48.61947800;9.05303100;2022-12-07T04:40:16;96035.56;;;-0.49;100.00
7824;BME280;3957;48.61947800;9.05303100;2022-12-07T04:41:37;96036.66;;;-0.52;100.00
7824;BME280;3957;48.61947800;9.05303100;2022-12-07T04:42:58;96031.41;;;-0.52;100.00
7824;BME280;3957;48.61947800;9.05303100;2022-12-07T04:44:20;96040.38;;;-0.55;100.00
7824;BME280;3957;48.61947800;9.05303100;2022-12-07T04:45:46;96031.25;;;-0.60;100.00
7824;BME280;3957;48.61947800;9.05303100;2022-12-07T04:47:06;96032.19;;;-0.61;100.00
7824;BME280;3957;48.61947800;9.05303100;2022-12-07T04:48:27;96029.72;;;-0.63;100.00
7824;BME280;3957;48.61947800;9.05303100;2022-12-07T04:49:48;96021.56;;;-0.60;100.00
7824;BME280;3957;48.61947800;9.05303100;2022-12-07T04:51:09;96023.63;;;-0.63;100.00
7824;BME280;3957;48.61947800;9.05303100;2022-12-07T04:52:30;96020.28;;;-0.65;100.00
7824;BME280;3957;48.61947800;9.05303100;2022-12-07T04:53:52;96020.03;;;-0.62;100.00
7824;BME280;3957;48.61947800;9.05303100;2022-12-07T04:55:13;96027.22;;;-0.64;100.00
7824;BME280;3957;48.61947800;9.05303100;2022-12-07T04:56:34;96017.38;;;-0.62;100.00
7824;BME280;3957;48.61947800;9.05303100;2022-12-07T04:57:55;96020.44;;;-0.67;100.00
7824;BME280;3957;48.61947800;9.05303100;2022-12-07T04:59:16;96026.38;;;-0.65;100.00
7824;BME280;3957;48.61947800;9.05303100;2022-12-07T05:00:37;96021.97;;;-0.64;100.00
7824;BME280;3957;48.61947800;9.05303100;2022-12-07T05:01:58;96021.25;;;-0.66;100.00
7824;BME280;3957;48.61947800;9.05303100;2022-12-07T05:03:19;96019.19;;;-0.63;100.00
7824;BME280;3957;48.61947800;9.05303100;2022-12-07T05:04:40;96020.16;;;-0.64;100.00
7824;BME280;3957;48.61947800;9.05303100;2022-12-07T05:06:00;96017.25;;;-0.61;100.00
7824;BME280;3957;48.61947800;9.05303100;2022-12-07T05:07:21;96022.50;;;-0.61;100.00
7824;BME280;3957;48.61947800;9.05303100;2022-12-07T05:08:42;96018.25;;;-0.62;100.00
7824;BME280;3957;48.61947800;9.05303100;2022-12-07T05:10:04;96014.63;;;-0.61;100.00
7824;BME280;3957;48.61947800;9.05303100;2022-12-07T05:11:25;96020.03;;;-0.62;100.00
7824;BME280;3957;48.61947800;9.05303100;2022-12-07T05:13:01;96008.84;;;-0.64;100.00
7824;BME280;3957;48.61947800;9.05303100;2022-12-07T05:14:22;96017.66;;;-0.65;100.00
7824;BME280;3957;48.61947800;9.05303100;2022-12-07T05:15:42;96011.97;;;-0.71;100.00
7824;BME280;3957;48.61947800;9.05303100;2022-12-07T05:17:04;96012.69;;;-0.78;100.00
7824;BME280;3957;48.61947800;9.05303100;2022-12-07T05:18:25;96012.81;;;-0.90;100.00
7824;BME280;3957;48.61947800;9.05303100;2022-12-07T05:19:45;96014.28;;;-0.97;100.00
7824;BME280;3957;48.61947800;9.05303100;2022-12-07T05:21:06;96005.56;;;-1.07;100.00
7824;BME280;3957;48.61947800;9.05303100;2022-12-07T05:22:27;96008.59;;;-1.12;100.00
7824;BME280;3957;48.61947800;9.05303100;2022-12-07T05:23:48;96009.94;;;-1.17;100.00
7824;BME280;3957;48.61947800;9.05303100;2022-12-07T05:25:09;96008.28;;;-1.18;100.00
7824;BME280;3957;48.61947800;9.05303100;2022-12-07T05:26:30;96011.88;;;-1.20;100.00
7824;BME280;3957;48.61947800;9.05303100;2022-12-07T05:27:51;96011.06;;;-1.20;100.00
7824;BME280;3957;48.61947800;9.05303100;2022-12-07T05:29:13;96011.06;;;-1.20;100.00
7824;BME280;3957;48.61947800;9.05303100;2022-12-07T05:30:34;96012.69;;;-1.19;100.00
7824;BME280;3957;48.61947800;9.05303100;2022-12-07T05:31:55;96005.66;;;-1.18;100.00
7824;BME280;3957;48.61947800;9.05303100;2022-12-07T05:33:16;96006.34;;;-1.16;100.00
7824;BME280;3957;48.61947800;9.05303100;2022-12-07T05:34:37;96007.06;;;-1.14;100.00
7824;BME280;3957;48.61947800;9.05303100;2022-12-07T05:35:57;96004.31;;;-1.03;100.00
7824;BME280;3957;48.61947800;9.05303100;2022-12-07T05:37:18;96003.06;;;-1.09;100.00
7824;BME280;3957;48.61947800;9.05303100;2022-12-07T05:38:39;96005.53;;;-1.17;100.00
7824;BME280;3957;48.61947800;9.05303100;2022-12-07T05:40:00;96002.19;;;-1.19;100.00
7824;BME280;3957;48.61947800;9.05303100;2022-12-07T05:41:20;95994.13;;;-1.27;100.00
7824;BME280;3957;48.61947800;9.05303100;2022-12-07T05:43:00;95991.09;;;-1.32;100.00
7824;BME280;3957;48.61947800;9.05303100;2022-12-07T05:44:21;95995.09;;;-1.38;100.00
7824;BME280;3957;48.61947800;9.05303100;2022-12-07T05:45:41;96002.53;;;-1.43;100.00
7824;BME280;3957;48.61947800;9.05303100;2022-12-07T05:47:02;95990.19;;;-1.52;100.00
7824;BME280;3957;48.61947800;9.05303100;2022-12-07T05:48:23;95989.50;;;-1.55;100.00
7824;BME280;3957;48.61947800;9.05303100;2022-12-07T05:49:45;95993.94;;;-1.45;100.00
7824;BME280;3957;48.61947800;9.05303100;2022-12-07T05:51:06;95995.75;;;-1.46;100.00
7824;BME280;3957;48.61947800;9.05303100;2022-12-07T05:52:26;96002.91;;;-1.48;100.00
7824;BME280;3957;48.61947800;9.05303100;2022-12-07T05:53:47;95998.78;;;-1.50;100.00
7824;BME280;3957;48.61947800;9.05303100;2022-12-07T05:55:08;95993.06;;;-1.56;100.00
7824;BME280;3957;48.61947800;9.05303100;2022-12-07T05:56:29;95999.00;;;-1.54;100.00
7824;BME280;3957;48.61947800;9.05303100;2022-12-07T05:57:50;95999.59;;;-1.50;100.00
7824;BME280;3957;48.61947800;9.05303100;2022-12-07T05:59:29;96002.97;;;-1.59;100.00
7824;BME280;3957;48.61947800;9.05303100;2022-12-07T06:00:50;96000.03;;;-1.66;100.00
7824;BME280;3957;48.61947800;9.05303100;2022-12-07T06:02:13;96006.41;;;-1.68;100.00
7824;BME280;3957;48.61947800;9.05303100;2022-12-07T06:03:34;96003.66;;;-1.67;100.00
7824;BME280;3957;48.61947800;9.05303100;2022-12-07T06:04:55;96005.97;;;-1.74;100.00
7824;BME280;3957;48.61947800;9.05303100;2022-12-07T06:06:16;96005.50;;;-1.79;100.00
7824;BME280;3957;48.61947800;9.05303100;2022-12-07T06:07:37;96014.28;;;-1.90;100.00
7824;BME280;3957;48.61947800;9.05303100;2022-12-07T06:08:57;96014.09;;;-1.98;100.00
7824;BME280;3957;48.61947800;9.05303100;2022-12-07T06:10:18;96016.16;;;-2.01;100.00
7824;BME280;3957;48.61947800;9.05303100;2022-12-07T06:11:40;96012.88;;;-1.94;100.00
7824;BME280;3957;48.61947800;9.05303100;2022-12-07T06:13:19;96014.00;;;-1.86;100.00
7824;BME280;3957;48.61947800;9.05303100;2022-12-07T06:14:40;96015.34;;;-1.92;100.00
7824;BME280;3957;48.61947800;9.05303100;2022-12-07T06:16:00;96017.56;;;-1.97;100.00
7824;BME280;3957;48.61947800;9.05303100;2022-12-07T06:17:21;96022.94;;;-1.99;100.00
7824;BME280;3957;48.61947800;9.05303100;2022-12-07T06:18:42;96019.66;;;-1.91;100.00
7824;BME280;3957;48.61947800;9.05303100;2022-12-07T06:20:03;96017.97;;;-1.92;100.00
7824;BME280;3957;48.61947800;9.05303100;2022-12-07T06:21:24;96021.31;;;-1.90;100.00
7824;BME280;3957;48.61947800;9.05303100;2022-12-07T06:22:47;96020.94;;;-1.85;100.00
7824;BME280;3957;48.61947800;9.05303100;2022-12-07T06:24:11;96022.47;;;-1.83;100.00
7824;BME280;3957;48.61947800;9.05303100;2022-12-07T06:25:31;96020.25;;;-1.88;100.00
7824;BME280;3957;48.61947800;9.05303100;2022-12-07T06:26:53;96020.25;;;-1.88;100.00
7824;BME280;3957;48.61947800;9.05303100;2022-12-07T06:28:13;96022.72;;;-1.86;100.00
7824;BME280;3957;48.61947800;9.05303100;2022-12-07T06:29:34;96023.41;;;-1.84;100.00
7824;BME280;3957;48.61947800;9.05303100;2022-12-07T06:30:58;96025.91;;;-1.82;100.00
7824;BME280;3957;48.61947800;9.05303100;2022-12-07T06:32:19;96032.47;;;-1.77;100.00
7824;BME280;3957;48.61947800;9.05303100;2022-12-07T06:33:41;96027.91;;;-1.75;100.00
7824;BME280;3957;48.61947800;9.05303100;2022-12-07T06:35:01;96030.72;;;-1.66;100.00
7824;BME280;3957;48.61947800;9.05303100;2022-12-07T06:36:22;96029.34;;;-1.61;100.00
7824;BME280;3957;48.61947800;9.05303100;2022-12-07T06:37:43;96033.38;;;-1.57;100.00
7824;BME280;3957;48.61947800;9.05303100;2022-12-07T06:39:04;96042.53;;;-1.51;100.00
7824;BME280;3957;48.61947800;9.05303100;2022-12-07T06:40:25;96032.03;;;-1.51;100.00
7824;BME280;3957;48.61947800;9.05303100;2022-12-07T06:41:46;96029.28;;;-1.49;100.00
7824;BME280;3957;48.61947800;9.05303100;2022-12-07T06:43:07;96040.63;;;-1.49;100.00
7824;BME280;3957;48.61947800;9.05303100;2022-12-07T06:44:29;96037.47;;;-1.43;100.00
7824;BME280;3957;48.61947800;9.05303100;2022-12-07T06:45:49;96030.44;;;-1.42;100.00
7824;BME280;3957;48.61947800;9.05303100;2022-12-07T06:47:11;96036.63;;;-1.43;100.00
7824;BME280;3957;48.61947800;9.05303100;2022-12-07T06:48:32;96046.88;;;-1.40;100.00
7824;BME280;3957;48.61947800;9.05303100;2022-12-07T06:49:52;96043.16;;;-1.38;100.00
7824;BME280;3957;48.61947800;9.05303100;2022-12-07T06:51:13;96042.06;;;-1.35;100.00
7824;BME280;3957;48.61947800;9.05303100;2022-12-07T06:52:34;96044.03;;;-1.27;100.00
7824;BME280;3957;48.61947800;9.05303100;2022-12-07T06:53:55;96040.16;;;-1.23;100.00
7824;BME280;3957;48.61947800;9.05303100;2022-12-07T06:55:16;96051.66;;;-1.24;100.00
7824;BME280;3957;48.61947800;9.05303100;2022-12-07T06:56:37;96047.09;;;-1.22;100.00
7824;BME280;3957;48.61947800;9.05303100;2022-12-07T06:57:58;96044.31;;;-1.21;100.00